Aviation Digital Data Service (ADDS)

Output produced by METARs form (0326 UTC 21 September 2017)
found at http://www.aviationweather.gov/adds/metars/
 
DAUA 210300Z 05013KT CAVOK 28/03 Q1011
TAF DAUA 202300Z 2100/2124 06015KT 8000 NSC 
     PROB40 2106/2112 06020G30KT 3000 DRSA
       
DABB 210300Z 23003KT 9999 FEW023 15/11 Q1019
TAF DABB 202300Z 2100/2124 13005KT 9999 FEW026 
     PROB30 
     TEMPO 2101/2106 3000 BR FEW010 
     BECMG 2111/2113 05014KT
       
DABT 210300Z 00000KT CAVOK 11/06 Q1022
TAF DABT 202300Z 2100/2124 23006KT 9999 FEW033 
     BECMG 2112/2115 31010KT
       
DAOR 210300Z 05004KT CAVOK 21/M01 Q1020
TAF DAOR 210200Z 2103/2112 11008KT CAVOK
       
DAAE 210300Z 24010KT CAVOK 17/13 Q1018
TAF DAAE 202300Z 2100/2124 14010KT 9999 FEW026 
     BECMG 2112/2114 05014KT
       
DAUB 210300Z 05005KT CAVOK 21/09 Q1019
TAF DAUB 202300Z 2100/2124 04006KT 9999 FEW040 
     BECMG 2111/2113 16014KT
       
DAOI 210300Z 06007KT CAVOK 22/16 Q1015
TAF DAOI 202300Z 2100/2124 08010KT CAVOK 
     BECMG 2106/2109 VRB02KT 
     BECMG 2112/2114 02010KT 
     BECMG 2120/2122 VRB02KT
       
DABC 210300Z 13003KT CAVOK 12/05 Q1021
TAF DABC 202300Z 2100/2124 VRB02KT 9999 FEW030 
     BECMG 2113/2115 07010KT
       
DAAG 210300Z 00000KT 9999 FEW023 15/13 Q1017
TAF DAAG 202300Z 2100/2124 VRB02KT CAVOK 
     BECMG 2108/2111 04014KT
       
DAAJ 210300Z 09002KT CAVOK 23/M02 Q1018
TAF DAAJ 202300Z 2100/2124 09010KT CAVOK 
     BECMG 2102/2105 VRB02KT
       
DAUE 210300Z 04011KT CAVOK 23/M01 Q1018
DAUO 210300Z 00000KT CAVOK 21/13 Q1018
TAF DAUO 210200Z 2103/2112 06010KT CAVOK
       
DAUG 210300Z 06009KT CAVOK 20/08 Q1019
TAF DAUG 202300Z 2100/2124 06012KT CAVOK 
     PROB30 
     TEMPO 2109/2114 4000 HZ
       
DAUH 210300Z 04008KT CAVOK 23/14 Q1017
TAF DAUH 202300Z 2100/2124 06012KT 8000 NSC 
     PROB30 
     TEMPO 2106/2115 06024KT 4000 DRSA
       
DAAP 210300Z 14011KT CAVOK 27/M03 Q1011
TAF DAAP 210200Z 2103/2112 15012KT CAVOK
       
DAUZ 210300Z 01011KT CAVOK 25/M04 Q1014
TAF DAUZ 202300Z 2100/2124 12012KT CAVOK 
     PROB30 
     TEMPO 2107/2112 16024KT 5000 DRSA
       
TAF DAUI 202300Z 2100/2124 06014KT 8000 NSC 
     PROB40 2100/2108 06024KT 5000 DRSA
       
DAAV 210300Z 09004KT CAVOK 18/13 Q1018
TAF DAAV 202300Z 2100/2124 30010KT 9999 FEW026 
     BECMG 2112/2114 07015KT
       
DAUL 210300Z 00000KT CAVOK 17/10 Q1021
TAF DAUL 210200Z 2103/2112 VRB02KT CAVOK 
     BECMG 2109/2112 14010KT
       
DAOV 210300Z 00000KT CAVOK 15/05 Q1017
TAF DAOV 202300Z 2100/2109 VRB02KT CAVOK 
     BECMG 2106/2108 17008KT
       
DAAY 202300Z 00000KT CAVOK 20/04 Q1024
TAF DAAY 202300Z 2100/2109 16010KT CAVOK
       
DAOO 210300Z 02002KT CAVOK 18/16 Q1015
TAF DAOO 202300Z 2100/2124 VRB02KT CAVOK 
     PROB30 
     TEMPO 2103/2107 2000 BR FEW010 
     BECMG 2109/2111 28010KT 
     BECMG 2114/2116 34012KT 
     BECMG 2121/2123 VRB02KT
       
DAOL 210000Z 06006KT CAVOK 20/11 Q1016
DAUU 210300Z 04008KT CAVOK 21/10 Q1017
TAF DAUU 210200Z 2103/2112 06014KT 8000 NSC 
     PROB30 
     TEMPO 2106/2112 4000 HZ
       
DAAS 210300Z 04004KT CAVOK 11/06 Q1022
TAF DAAS 202300Z 2100/2124 31005KT 9999 FEW033 
     BECMG 2111/2113 23010KT
       
DAAT 210300Z 11006KT CAVOK 21/M01 Q1021
TAF DAAT 202300Z 2100/2124 16012KT CAVOK 
     PROB30 2106/2112 3000 HZ 
     BECMG 2115/2118 VRB02KT
       
DABS 210300Z 14005KT CAVOK 12/07 Q1023
TAF DABS 202300Z 2100/2124 VRB02KT 9999 FEW033 
     BECMG 2113/2115 34010KT
       
DAOB 210300Z 34004KT CAVOK 13/07 Q1020
TAF DAOB 202300Z 2100/2124 11010KT CAVOK 
     BECMG 2108/2111 18012KT 
     BECMG 2118/2121 VRB02KT
       
DAUT 210300Z 05019KT CAVOK 25/03 Q1013
TAF DAUT 210200Z 2103/2112 05018KT 8000 NSC 
     PROB40 2106/2112 06020G30KT 5000 DRSA
       
DAOF 210300Z 29008KT CAVOK 23/05 Q1012
TAF DAOF 210200Z 2103/2112 28010KT CAVOK
       
DAON 210300Z 00000KT CAVOK 16/10 Q1016
TAF DAON 202300Z 2100/2124 VRB02KT CAVOK 
     BECMG 2112/2114 36010KT
       
DAUK 210300Z 08004KT CAVOK 19/13 Q1018
TAF DAUK 210200Z 2103/2112 06010KT CAVOK